Time;durP1;ratioP1;P1;durP2;ratioP2;P2;SDS_P1;SDS_P2;PMS_P1;PMS_P2;Temp;Humidity;BMP_temperature;BMP_pressure;BME280_temperature;BME280_humidity;BME280_pressure;Samples;Min_cycle;Max_cycle;Signal;HPM_P1;HPM_P2
2023/09/24 00:01:13;;;;;;;5.95;3.80;;;;;;;;;;4975084;28;20034;-78
2023/09/24 00:03:39;;;;;;;6.43;3.72;;;;;;;;;;4992962;28;20034;-79
2023/09/24 00:06:09;;;;;;;9.40;4.00;;;;;;;;;;5005274;28;20084;-78
2023/09/24 00:08:35;;;;;;;7.43;4.03;;;;;;;;;;4975635;28;20596;-78
2023/09/24 00:11:02;;;;;;;8.30;3.80;;;;;;;;;;4973073;28;20038;-78
2023/09/24 00:13:28;;;;;;;8.98;3.97;;;;;;;;;;4989844;28;20044;-79
2023/09/24 00:15:54;;;;;;;6.35;4.10;;;;;;;;;;5004767;28;20065;-79
2023/09/24 00:18:19;;;;;;;5.28;3.40;;;;;;;;;;4969156;28;20128;-79
2023/09/24 00:20:45;;;;;;;6.65;3.85;;;;;;;;;;4988915;28;20176;-77
2023/09/24 00:23:16;;;;;;;7.80;3.83;;;;;;;;;;4990000;28;20494;-77
2023/09/24 00:25:41;;;;;;;6.43;3.95;;;;;;;;;;4968607;28;20077;-78
2023/09/24 00:28:07;;;;;;;8.07;3.78;;;;;;;;;;4976439;28;20124;-77
2023/09/24 00:30:34;;;;;;;5.97;3.95;;;;;;;;;;4993505;28;20612;-78
2023/09/24 00:33:00;;;;;;;6.20;3.63;;;;;;;;;;5002839;28;20477;-78
2023/09/24 00:35:26;;;;;;;6.88;4.57;;;;;;;;;;4982754;28;20508;-78
2023/09/24 00:37:51;;;;;;;5.53;3.90;;;;;;;;;;4994122;28;20124;-78
2023/09/24 00:40:18;;;;;;;5.85;3.78;;;;;;;;;;5006517;28;20034;-78
2023/09/24 00:42:43;;;;;;;6.22;4.00;;;;;;;;;;4972319;28;20219;-78
2023/09/24 00:45:11;;;;;;;7.32;3.63;;;;;;;;;;4982380;28;20038;-78
2023/09/24 00:47:38;;;;;;;5.72;3.55;;;;;;;;;;4991983;28;20073;-78
2023/09/24 00:50:07;;;;;;;5.43;3.50;;;;;;;;;;5003133;28;20029;-79
2023/09/24 00:52:33;;;;;;;5.05;3.40;;;;;;;;;;4995443;28;20281;-79
2023/09/24 00:54:58;;;;;;;6.22;3.70;;;;;;;;;;4995538;28;20045;-79
2023/09/24 00:57:26;;;;;;;6.57;3.55;;;;;;;;;;4977584;28;20041;-78
2023/09/24 00:59:52;;;;;;;5.82;3.67;;;;;;;;;;4981631;28;20809;-78
2023/09/24 01:02:17;;;;;;;5.93;3.40;;;;;;;;;;4982498;28;20034;-79
2023/09/24 01:04:44;;;;;;;4.65;3.15;;;;;;;;;;4982027;28;20038;-78
2023/09/24 01:07:10;;;;;;;5.72;3.33;;;;;;;;;;4972417;28;20502;-78
2023/09/24 01:09:35;;;;;;;7.05;3.35;;;;;;;;;;4981796;28;20076;-78
2023/09/24 01:12:03;;;;;;;7.00;3.30;;;;;;;;;;4971660;28;20114;-78
2023/09/24 01:14:28;;;;;;;;;;;;;;;;;;4987378;28;20040;-79
2023/09/24 01:16:54;;;;;;;5.97;3.42;;;;;;;;;;4994873;28;19914;-79
2023/09/24 01:19:21;;;;;;;5.50;3.60;;;;;;;;;;4974359;28;20505;-79
2023/09/24 01:21:50;;;;;;;6.68;3.55;;;;;;;;;;4971298;28;20645;-79
2023/09/24 01:24:15;;;;;;;8.65;3.78;;;;;;;;;;4964712;28;20046;-79
2023/09/24 01:26:41;;;;;;;6.35;3.78;;;;;;;;;;4968497;28;20034;-79
2023/09/24 01:29:09;;;;;;;6.07;3.40;;;;;;;;;;4987517;28;20068;-78
2023/09/24 01:31:38;;;;;;;6.97;3.47;;;;;;;;;;4985414;28;20045;-79
2023/09/24 01:34:07;;;;;;;4.85;3.22;;;;;;;;;;4983661;28;20030;-79
2023/09/24 01:36:33;;;;;;;6.03;3.40;;;;;;;;;;4982471;28;20041;-79
2023/09/24 01:39:02;;;;;;;5.43;3.60;;;;;;;;;;4962172;28;20030;-79
2023/09/24 01:41:30;;;;;;;5.30;3.63;;;;;;;;;;4969002;28;20038;-79
2023/09/24 01:43:57;;;;;;;5.72;3.70;;;;;;;;;;4958262;28;20034;-79
2023/09/24 01:46:22;;;;;;;6.78;3.50;;;;;;;;;;4968146;28;20740;-79
2023/09/24 01:48:53;;;;;;;8.35;3.83;;;;;;;;;;4970542;28;20093;-79
2023/09/24 01:51:20;;;;;;;6.85;3.80;;;;;;;;;;4974597;28;20026;-79
2023/09/24 01:53:45;;;;;;;5.65;3.60;;;;;;;;;;4952790;28;20038;-79
2023/09/24 01:56:12;;;;;;;6.95;4.25;;;;;;;;;;4971943;28;20038;-79
2023/09/24 01:58:38;;;;;;;7.68;3.72;;;;;;;;;;4973758;28;20398;-79
2023/09/24 02:01:04;;;;;;;7.35;3.70;;;;;;;;;;4972768;28;20093;-78
2023/09/24 02:03:30;;;;;;;5.53;3.78;;;;;;;;;;4978201;28;20394;-80
2023/09/24 02:05:56;;;;;;;8.00;3.85;;;;;;;;;;4950154;28;20437;-79
2023/09/24 02:08:21;;;;;;;6.35;3.58;;;;;;;;;;4972613;28;20641;-79
2023/09/24 02:10:47;;;;;;;5.95;3.95;;;;;;;;;;4951395;28;20062;-79
2023/09/24 02:13:13;;;;;;;5.57;3.60;;;;;;;;;;4958841;28;20037;-79
2023/09/24 02:15:39;;;;;;;6.57;4.15;;;;;;;;;;4989006;28;20075;-79
2023/09/24 02:18:10;;;;;;;5.90;3.95;;;;;;;;;;4989275;28;20034;-78
2023/09/24 02:20:38;;;;;;;6.05;3.95;;;;;;;;;;4988154;28;20030;-79
2023/09/24 02:23:05;;;;;;;8.35;3.88;;;;;;;;;;4976745;28;20039;-79
2023/09/24 02:25:33;;;;;;;6.00;3.70;;;;;;;;;;4986470;28;20396;-79
2023/09/24 02:27:59;;;;;;;6.65;3.90;;;;;;;;;;4962386;28;20502;-79
2023/09/24 02:30:29;;;;;;;6.95;3.95;;;;;;;;;;4974885;28;20077;-80
2023/09/24 02:32:59;;;;;;;6.00;3.88;;;;;;;;;;4987408;28;20804;-78
2023/09/24 02:35:25;;;;;;;5.90;3.83;;;;;;;;;;4976086;28;20036;-79
2023/09/24 02:37:51;;;;;;;5.97;3.83;;;;;;;;;;4994912;28;20034;-79
2023/09/24 02:40:27;;;;;;;6.45;4.00;;;;;;;;;;4995178;28;20539;-79
2023/09/24 02:42:57;;;;;;;6.50;4.55;;;;;;;;;;5000654;28;20156;-78
2023/09/24 02:45:23;;;;;;;7.57;3.83;;;;;;;;;;4999762;28;20042;-78
2023/09/24 02:47:52;;;;;;;7.53;4.07;;;;;;;;;;4992423;28;20042;-79
2023/09/24 02:50:22;;;;;;;5.72;4.07;;;;;;;;;;4992213;28;20030;-78
2023/09/24 02:52:48;;;;;;;6.05;3.75;;;;;;;;;;4996414;28;20037;-78
2023/09/24 02:55:14;;;;;;;7.88;4.25;;;;;;;;;;4990812;28;20145;-78
2023/09/24 02:57:41;;;;;;;6.30;3.85;;;;;;;;;;4977871;28;20468;-78
2023/09/24 03:00:12;;;;;;;6.70;3.92;;;;;;;;;;4980465;28;20038;-78
2023/09/24 03:02:38;;;;;;;7.40;3.80;;;;;;;;;;4987095;28;20031;-78
2023/09/24 03:05:06;;;;;;;7.30;3.83;;;;;;;;;;4974338;28;20038;-77
2023/09/24 03:07:32;;;;;;;6.57;4.30;;;;;;;;;;5014410;28;20037;-79
2023/09/24 03:09:57;;;;;;;7.15;4.13;;;;;;;;;;4978328;28;20076;-78
2023/09/24 03:12:24;;;;;;;7.60;3.78;;;;;;;;;;4986588;28;20069;-78
2023/09/24 03:14:50;;;;;;;6.03;3.85;;;;;;;;;;5017825;28;20486;-78
2023/09/24 03:17:35;;;;;;;6.43;3.53;;;;;;;;;;4976720;28;20038;-79
2023/09/24 03:20:04;;;;;;;6.18;3.97;;;;;;;;;;4978329;28;20041;-79
2023/09/24 03:22:30;;;;;;;6.03;3.78;;;;;;;;;;4970089;28;20038;-79
2023/09/24 03:24:57;;;;;;;5.90;3.78;;;;;;;;;;4972187;28;20042;-78
2023/09/24 03:27:22;;;;;;;6.43;3.43;;;;;;;;;;4986055;28;20042;-79
2023/09/24 03:29:48;;;;;;;6.05;3.63;;;;;;;;;;4969606;28;20037;-79
2023/09/24 03:32:14;;;;;;;5.97;3.90;;;;;;;;;;4967061;28;20410;-79
2023/09/24 03:34:40;;;;;;;6.43;3.67;;;;;;;;;;4989339;28;20153;-78
2023/09/24 03:37:09;;;;;;;6.15;3.40;;;;;;;;;;4968539;28;20558;-78
2023/09/24 03:39:35;;;;;;;5.10;3.30;;;;;;;;;;4969644;28;20081;-78
2023/09/24 03:42:00;;;;;;;5.97;3.75;;;;;;;;;;4984221;28;20070;-79
2023/09/24 03:44:26;;;;;;;7.22;3.70;;;;;;;;;;4982842;28;20043;-79
2023/09/24 03:46:51;;;;;;;4.72;3.38;;;;;;;;;;4984595;28;20038;-79
2023/09/24 03:49:16;;;;;;;5.78;3.13;;;;;;;;;;4972483;28;20408;-79
2023/09/24 03:51:42;;;;;;;5.60;3.20;;;;;;;;;;4981722;28;20083;-79
2023/09/24 03:54:07;;;;;;;6.93;3.58;;;;;;;;;;4971657;28;20048;-78
2023/09/24 03:56:32;;;;;;;5.53;3.33;;;;;;;;;;4977929;28;20101;-78
2023/09/24 03:59:04;;;;;;;4.75;3.33;;;;;;;;;;5010579;28;20386;-79
2023/09/24 04:01:31;;;;;;;6.43;3.40;;;;;;;;;;4972188;28;20578;-78
2023/09/24 04:03:59;;;;;;;6.37;3.77;;;;;;;;;;4983181;28;20057;-79
2023/09/24 04:06:25;;;;;;;5.90;3.45;;;;;;;;;;4988089;28;20154;-78
2023/09/24 04:08:51;;;;;;;5.55;3.25;;;;;;;;;;4984427;28;20386;-79
2023/09/24 04:11:16;;;;;;;6.13;3.45;;;;;;;;;;4986187;28;20069;-79
2023/09/24 04:13:42;;;;;;;6.45;3.10;;;;;;;;;;4982858;28;20035;-78
2023/09/24 04:16:13;;;;;;;6.85;3.40;;;;;;;;;;4983151;28;20034;-78
2023/09/24 04:18:41;;;;;;;5.35;3.15;;;;;;;;;;4973592;28;20458;-78
2023/09/24 04:21:19;;;;;;;5.25;3.70;;;;;;;;;;4969906;28;20088;-79
2023/09/24 04:23:46;;;;;;;6.35;3.20;;;;;;;;;;4966158;28;20040;-78
2023/09/24 04:26:21;;;;;;;4.97;3.17;;;;;;;;;;4970788;28;20077;-79
2023/09/24 04:28:46;;;;;;;7.30;3.17;;;;;;;;;;4984910;28;20073;-79
2023/09/24 04:31:14;;;;;;;5.53;3.15;;;;;;;;;;4986070;28;20069;-79
2023/09/24 04:33:41;;;;;;;;;;;;;;;;;;4973095;28;20034;-78
2023/09/24 04:36:06;;;;;;;6.30;3.22;;;;;;;;;;4984300;28;19927;-79
2023/09/24 04:38:32;;;;;;;5.80;3.25;;;;;;;;;;4981146;28;20034;-79
2023/09/24 04:40:58;;;;;;;5.75;3.25;;;;;;;;;;4980340;28;20030;-79
2023/09/24 04:43:23;;;;;;;4.57;3.08;;;;;;;;;;4986408;28;20046;-79
2023/09/24 04:46:12;;;;;;;5.40;3.60;;;;;;;;;;4975756;28;20506;-78
2023/09/24 04:48:39;;;;;;;6.25;3.03;;;;;;;;;;4996471;28;20053;-79
2023/09/24 04:51:04;;;;;;;5.82;3.17;;;;;;;;;;4993714;28;20034;-79
2023/09/24 04:53:30;;;;;;;5.15;3.22;;;;;;;;;;4992250;28;20074;-79
2023/09/24 04:55:57;;;;;;;5.75;3.40;;;;;;;;;;4980472;28;20037;-79
2023/09/24 04:58:23;;;;;;;4.70;2.90;;;;;;;;;;4994492;28;20045;-79
2023/09/24 05:00:48;;;;;;;7.10;3.67;;;;;;;;;;4970179;28;20556;-79
2023/09/24 05:03:14;;;;;;;6.63;4.10;;;;;;;;;;4990336;28;20133;-79
2023/09/24 05:05:43;;;;;;;7.18;4.60;;;;;;;;;;4986258;28;20050;-79
2023/09/24 05:08:09;;;;;;;8.50;5.80;;;;;;;;;;4971954;28;20027;-79
2023/09/24 05:10:36;;;;;;;8.13;6.43;;;;;;;;;;4984391;28;20398;-79
2023/09/24 05:13:05;;;;;;;8.60;6.80;;;;;;;;;;4969116;28;20034;-79
2023/09/24 05:15:30;;;;;;;8.80;7.22;;;;;;;;;;4983873;28;20848;-80
2023/09/24 05:17:56;;;;;;;10.68;7.40;;;;;;;;;;4993826;28;20113;-79
2023/09/24 05:20:22;;;;;;;11.85;8.05;;;;;;;;;;4973332;28;20061;-79
2023/09/24 05:22:47;;;;;;;9.18;6.55;;;;;;;;;;4987189;28;20035;-79
2023/09/24 05:25:13;;;;;;;10.57;6.78;;;;;;;;;;4980127;28;20046;-79
2023/09/24 05:27:38;;;;;;;10.07;7.60;;;;;;;;;;4990388;28;20101;-79
2023/09/24 05:30:07;;;;;;;11.10;7.03;;;;;;;;;;4992650;28;20045;-79
2023/09/24 05:32:33;;;;;;;9.60;6.95;;;;;;;;;;5009826;28;20161;-78
2023/09/24 05:34:59;;;;;;;11.18;7.72;;;;;;;;;;4998823;28;20509;-79
2023/09/24 05:37:24;;;;;;;12.18;7.50;;;;;;;;;;5021409;28;20038;-79
2023/09/24 05:39:50;;;;;;;10.88;6.95;;;;;;;;;;4995078;28;20089;-79
2023/09/24 05:42:16;;;;;;;9.57;7.68;;;;;;;;;;4991655;28;20042;-78
2023/09/24 05:44:42;;;;;;;9.52;7.18;;;;;;;;;;4972697;28;20439;-79
2023/09/24 05:47:08;;;;;;;11.57;7.00;;;;;;;;;;4965240;28;20381;-78
2023/09/24 05:49:33;;;;;;;10.90;6.70;;;;;;;;;;4950612;28;20039;-78
2023/09/24 05:51:59;;;;;;;7.68;6.20;;;;;;;;;;4961611;28;20478;-79
2023/09/24 05:54:24;;;;;;;9.20;6.70;;;;;;;;;;4972165;28;20038;-79
2023/09/24 05:56:50;;;;;;;11.63;7.32;;;;;;;;;;4969831;28;20105;-79
2023/09/24 05:59:15;;;;;;;10.95;7.07;;;;;;;;;;4966980;28;20047;-79
2023/09/24 06:01:42;;;;;;;9.05;7.32;;;;;;;;;;4969773;28;20117;-79
2023/09/24 06:04:08;;;;;;;12.32;7.88;;;;;;;;;;4967969;28;20433;-80
2023/09/24 06:06:33;;;;;;;11.27;7.57;;;;;;;;;;4989681;28;20022;-78
2023/09/24 06:08:58;;;;;;;9.30;7.50;;;;;;;;;;4979284;28;20486;-78
2023/09/24 06:11:24;;;;;;;12.10;7.13;;;;;;;;;;4991608;28;20037;-78
2023/09/24 06:13:49;;;;;;;11.07;6.82;;;;;;;;;;4990240;28;20026;-78
2023/09/24 06:16:15;;;;;;;9.85;7.68;;;;;;;;;;4990807;28;20393;-78
2023/09/24 06:18:40;;;;;;;10.05;6.80;;;;;;;;;;4991949;28;20061;-78
2023/09/24 06:21:06;;;;;;;10.30;7.15;;;;;;;;;;4989576;28;20030;-78
2023/09/24 06:23:31;;;;;;;11.40;7.45;;;;;;;;;;4990452;28;20041;-78
2023/09/24 06:25:58;;;;;;;9.25;6.40;;;;;;;;;;4992204;28;20120;-78
2023/09/24 06:28:27;;;;;;;8.05;6.10;;;;;;;;;;4997785;28;20128;-78
2023/09/24 06:30:59;;;;;;;7.25;5.93;;;;;;;;;;4988266;28;20041;-78
2023/09/24 06:33:25;;;;;;;9.43;5.60;;;;;;;;;;4983332;28;20046;-78
2023/09/24 06:35:54;;;;;;;9.27;5.70;;;;;;;;;;4965390;28;20412;-78
2023/09/24 06:38:20;;;;;;;7.18;5.55;;;;;;;;;;4991942;28;20466;-78
2023/09/24 06:40:45;;;;;;;8.20;5.32;;;;;;;;;;4990331;28;20125;-78
2023/09/24 06:43:11;;;;;;;9.57;5.55;;;;;;;;;;4993353;28;20064;-78
2023/09/24 06:45:36;;;;;;;9.45;5.18;;;;;;;;;;5006509;28;20042;-78
2023/09/24 06:48:03;;;;;;;7.43;4.55;;;;;;;;;;4991200;28;20037;-79
2023/09/24 06:50:29;;;;;;;7.78;5.60;;;;;;;;;;4986783;28;20038;-79
2023/09/24 06:52:54;;;;;;;7.93;4.90;;;;;;;;;;4992470;28;20030;-78
2023/09/24 06:55:19;;;;;;;7.05;4.63;;;;;;;;;;5009134;28;20065;-78
2023/09/24 06:57:45;;;;;;;6.53;4.47;;;;;;;;;;5007202;28;20030;-79
2023/09/24 07:00:11;;;;;;;7.57;4.40;;;;;;;;;;4991905;28;20048;-78
2023/09/24 07:02:37;;;;;;;7.18;4.30;;;;;;;;;;5005311;28;20040;-79
2023/09/24 07:05:07;;;;;;;5.78;4.50;;;;;;;;;;5006272;28;20408;-79
2023/09/24 07:07:32;;;;;;;5.72;4.32;;;;;;;;;;4994004;28;20048;-81
2023/09/24 07:10:01;;;;;;;6.85;4.50;;;;;;;;;;4993829;28;20042;-80
2023/09/24 07:12:26;;;;;;;7.15;4.20;;;;;;;;;;5007197;28;20026;-80
2023/09/24 07:14:53;;;;;;;6.90;4.50;;;;;;;;;;5010316;28;20512;-80
2023/09/24 07:17:18;;;;;;;6.32;4.22;;;;;;;;;;4975234;28;20042;-80
2023/09/24 07:20:02;;;;;;;8.52;4.30;;;;;;;;;;4986318;28;20152;-80
2023/09/24 07:22:32;;;;;;;7.00;4.10;;;;;;;;;;5007893;28;20065;-80
2023/09/24 07:25:04;;;;;;;5.90;4.25;;;;;;;;;;4972859;28;20045;-80
2023/09/24 07:27:30;;;;;;;7.20;3.90;;;;;;;;;;4988235;28;20061;-81
2023/09/24 07:30:03;;;;;;;7.28;4.00;;;;;;;;;;4952878;28;20505;-85
2023/09/24 07:32:30;;;;;;;7.28;3.90;;;;;;;;;;4936970;28;20038;-85
2023/09/24 07:34:56;;;;;;;6.80;3.92;;;;;;;;;;4948293;28;20052;-84
2023/09/24 07:37:44;;;;;;;6.22;3.53;;;;;;;;;;4975644;28;20041;-84
2023/09/24 07:40:10;;;;;;;5.88;3.17;;;;;;;;;;4983884;28;20050;-84
2023/09/24 07:42:41;;;;;;;5.32;3.50;;;;;;;;;;4963099;28;20045;-83
2023/09/24 07:48:13;;;;;;;6.53;3.40;;;;;;;;;;4950414;28;20034;-84
2023/09/24 07:50:38;;;;;;;6.50;2.95;;;;;;;;;;4995950;28;20034;-84
2023/09/24 07:53:22;;;;;;;;;;;;;;;;;;;;;
2023/09/24 07:56:07;;;;;;;5.80;2.80;;;;;;;;;;4944349;28;20794;-83
2023/09/24 07:58:52;;;;;;;6.55;2.85;;;;;;;;;;4976199;28;20051;-84
2023/09/24 08:01:21;;;;;;;5.22;2.78;;;;;;;;;;4951161;28;20046;-80
2023/09/24 08:03:47;;;;;;;6.40;2.22;;;;;;;;;;5013270;28;20029;-81
2023/09/24 08:06:12;;;;;;;4.50;2.55;;;;;;;;;;5006171;28;20106;-81
2023/09/24 08:08:58;;;;;;;4.82;2.50;;;;;;;;;;4994521;28;20036;-81
2023/09/24 08:11:24;;;;;;;4.63;2.33;;;;;;;;;;4935655;28;20109;-79
2023/09/24 08:13:50;;;;;;;4.32;2.42;;;;;;;;;;4932170;28;20043;-79
2023/09/24 08:16:15;;;;;;;4.45;2.08;;;;;;;;;;4924551;28;20483;-79
2023/09/24 08:18:41;;;;;;;5.65;2.08;;;;;;;;;;4952182;28;20125;-80
2023/09/24 08:21:07;;;;;;;3.55;1.80;;;;;;;;;;4931329;28;20072;-79
2023/09/24 08:23:33;;;;;;;5.45;2.28;;;;;;;;;;4948413;28;20487;-79
2023/09/24 08:25:59;;;;;;;4.50;2.00;;;;;;;;;;4932086;28;20174;-79
2023/09/24 08:28:25;;;;;;;4.55;2.10;;;;;;;;;;4932824;28;20129;-79
2023/09/24 08:30:50;;;;;;;3.78;1.90;;;;;;;;;;4929951;28;20039;-79
2023/09/24 08:33:16;;;;;;;6.22;2.10;;;;;;;;;;4952243;28;20071;-79
2023/09/24 08:35:41;;;;;;;6.38;2.03;;;;;;;;;;4932093;28;20035;-79
2023/09/24 08:38:14;;;;;;;3.40;1.90;;;;;;;;;;4924586;28;20067;-79
2023/09/24 08:40:40;;;;;;;4.00;1.67;;;;;;;;;;4928900;28;20102;-81
2023/09/24 08:43:13;;;;;;;3.92;1.50;;;;;;;;;;4933062;28;20057;-81
2023/09/24 08:45:38;;;;;;;4.85;1.60;;;;;;;;;;4932469;28;20045;-81
2023/09/24 08:48:07;;;;;;;4.85;1.70;;;;;;;;;;4940363;28;20406;-81
2023/09/24 08:50:38;;;;;;;5.13;1.70;;;;;;;;;;4984889;28;20122;-81
2023/09/24 08:53:06;;;;;;;4.88;1.70;;;;;;;;;;4990502;28;20030;-81
2023/09/24 08:55:34;;;;;;;4.13;1.33;;;;;;;;;;5004355;28;20121;-81
2023/09/24 08:57:59;;;;;;;3.15;1.13;;;;;;;;;;5006207;28;20070;-81
2023/09/24 09:00:25;;;;;;;2.45;1.00;;;;;;;;;;4988865;28;20521;-81
2023/09/24 09:02:50;;;;;;;3.55;1.15;;;;;;;;;;4978929;28;20034;-80
2023/09/24 09:05:25;;;;;;;4.40;1.00;;;;;;;;;;4990738;28;20046;-81
2023/09/24 09:08:01;;;;;;;2.70;0.93;;;;;;;;;;4993445;28;20041;-80
2023/09/24 09:10:27;;;;;;;3.80;0.90;;;;;;;;;;4974039;28;20029;-80
2023/09/24 09:13:30;;;;;;;4.15;1.00;;;;;;;;;;5003563;28;20113;-80
2023/09/24 09:16:08;;;;;;;5.22;2.17;;;;;;;;;;4939027;28;20034;-82
2023/09/24 09:18:35;;;;;;;3.10;0.90;;;;;;;;;;4987835;28;20528;-80
2023/09/24 09:21:27;;;;;;;3.28;0.90;;;;;;;;;;4988926;28;20054;-85
2023/09/24 09:23:52;;;;;;;2.42;0.85;;;;;;;;;;4973610;28;20034;-82
2023/09/24 09:26:40;;;;;;;;;;;;;;;;;;;;;
2023/09/24 09:29:06;;;;;;;3.38;0.90;;;;;;;;;;5005764;28;20393;-80
2023/09/24 09:31:47;;;;;;;2.70;0.90;;;;;;;;;;5001569;28;20048;-80
2023/09/24 09:34:12;;;;;;;3.92;1.05;;;;;;;;;;5003375;28;20608;-79
2023/09/24 09:36:37;;;;;;;3.17;1.15;;;;;;;;;;5005592;28;20040;-80
2023/09/24 09:39:03;;;;;;;3.58;0.80;;;;;;;;;;4989238;28;20038;-79
2023/09/24 09:41:33;;;;;;;5.00;1.13;;;;;;;;;;5000713;28;20038;-78
2023/09/24 09:44:04;;;;;;;4.88;1.17;;;;;;;;;;4975596;28;20091;-80
2023/09/24 09:46:33;;;;;;;5.15;1.40;;;;;;;;;;4975386;28;20041;-80
2023/09/24 09:49:05;;;;;;;4.63;1.15;;;;;;;;;;4974232;28;20120;-80
2023/09/24 09:51:47;;;;;;;4.45;1.48;;;;;;;;;;4989070;28;20041;-79
2023/09/24 09:54:14;;;;;;;3.92;1.20;;;;;;;;;;4987532;28;20502;-79
2023/09/24 09:56:40;;;;;;;4.90;1.40;;;;;;;;;;4974931;28;20500;-80
2023/09/24 09:59:06;;;;;;;3.38;1.25;;;;;;;;;;4973325;28;20038;-79
2023/09/24 10:01:32;;;;;;;3.83;1.02;;;;;;;;;;4978309;28;20033;-79
2023/09/24 10:03:59;;;;;;;3.78;1.33;;;;;;;;;;4974816;28;20912;-79
2023/09/24 10:06:25;;;;;;;5.18;1.20;;;;;;;;;;4998193;28;20474;-79
2023/09/24 10:08:50;;;;;;;3.00;1.20;;;;;;;;;;4973470;28;20036;-78
2023/09/24 10:11:31;;;;;;;4.03;1.13;;;;;;;;;;4984645;28;20130;-80
2023/09/24 10:13:57;;;;;;;5.82;1.10;;;;;;;;;;5002284;28;20095;-79
2023/09/24 10:16:25;;;;;;;4.20;1.27;;;;;;;;;;4977474;28;20034;-79
2023/09/24 10:18:58;;;;;;;5.40;1.55;;;;;;;;;;5006159;28;20146;-80
2023/09/24 10:21:30;;;;;;;2.90;1.10;;;;;;;;;;4988137;28;20038;-80
2023/09/24 10:24:17;;;;;;;4.57;1.10;;;;;;;;;;4975983;28;20039;-80
2023/09/24 10:27:01;;;;;;;4.13;1.20;;;;;;;;;;4977933;28;20030;-79
2023/09/24 10:29:44;;;;;;;2.55;1.00;;;;;;;;;;4980699;28;20061;-79
2023/09/24 10:32:17;;;;;;;3.75;1.00;;;;;;;;;;5003404;28;20034;-80
2023/09/24 10:34:54;;;;;;;2.80;0.70;;;;;;;;;;4990838;28;20427;-79
2023/09/24 10:37:27;;;;;;;2.90;1.13;;;;;;;;;;5002895;28;20121;-80
2023/09/24 10:40:04;;;;;;;3.10;0.90;;;;;;;;;;4995656;28;20548;-81
2023/09/24 10:42:30;;;;;;;;;;;;;;;;;;4996808;28;20046;-80
2023/09/24 10:45:08;;;;;;;4.72;0.82;;;;;;;;;;5010177;28;20269;-81
2023/09/24 10:47:41;;;;;;;3.58;0.90;;;;;;;;;;5006653;28;20393;-80
2023/09/24 10:50:14;;;;;;;3.03;0.80;;;;;;;;;;4995146;28;20062;-81
2023/09/24 10:52:59;;;;;;;5.32;0.90;;;;;;;;;;4977786;28;20038;-80
2023/09/24 10:55:33;;;;;;;1.98;0.65;;;;;;;;;;4989415;28;20041;-80
2023/09/24 10:58:25;;;;;;;3.60;0.70;;;;;;;;;;4986315;28;20699;-80
2023/09/24 11:00:51;;;;;;;3.88;0.90;;;;;;;;;;4982246;28;20034;-80
2023/09/24 11:03:17;;;;;;;5.22;1.75;;;;;;;;;;4995315;28;20137;-80
2023/09/24 11:05:44;;;;;;;2.45;0.80;;;;;;;;;;5022108;28;20120;-81
2023/09/24 11:08:14;;;;;;;3.70;1.02;;;;;;;;;;5006633;28;20041;-81
2023/09/24 11:10:42;;;;;;;2.90;0.68;;;;;;;;;;5006206;28;20122;-80
2023/09/24 11:13:07;;;;;;;1.92;0.60;;;;;;;;;;4995326;28;20565;-78
2023/09/24 11:15:38;;;;;;;3.25;0.52;;;;;;;;;;4992752;28;20029;-79
2023/09/24 11:18:04;;;;;;;2.72;0.60;;;;;;;;;;4987081;28;20045;-80
2023/09/24 11:20:34;;;;;;;4.38;0.70;;;;;;;;;;4991830;28;20393;-80
2023/09/24 11:23:11;;;;;;;4.63;0.80;;;;;;;;;;5007340;28;20492;-81
2023/09/24 11:25:37;;;;;;;3.77;0.93;;;;;;;;;;5009038;28;20461;-79
2023/09/24 11:28:07;;;;;;;3.37;0.70;;;;;;;;;;4991383;28;20260;-81
2023/09/24 11:30:50;;;;;;;6.82;0.73;;;;;;;;;;4993904;28;20668;-80
2023/09/24 11:33:22;;;;;;;3.20;0.65;;;;;;;;;;4989116;28;20054;-80
2023/09/24 11:35:53;;;;;;;2.53;0.85;;;;;;;;;;4997007;28;20387;-81
2023/09/24 11:38:40;;;;;;;1.95;0.50;;;;;;;;;;4990475;28;20521;-81
2023/09/24 11:41:09;;;;;;;;;;;;;;;;;;4982934;28;20493;-81
2023/09/24 11:43:36;;;;;;;3.28;0.95;;;;;;;;;;4994425;28;20452;-80
2023/09/24 11:46:01;;;;;;;3.33;0.50;;;;;;;;;;4973576;28;20038;-88
2023/09/24 11:48:52;;;;;;;2.10;0.57;;;;;;;;;;4977185;28;20059;-89
2023/09/24 11:51:23;;;;;;;2.78;0.52;;;;;;;;;;4999584;28;20126;-83
2023/09/24 11:53:57;;;;;;;2.90;0.50;;;;;;;;;;5007171;28;20034;-83
2023/09/24 11:56:25;;;;;;;2.10;0.50;;;;;;;;;;4978959;28;20046;-82
2023/09/24 11:58:50;;;;;;;1.80;0.55;;;;;;;;;;4991356;28;20501;-83
2023/09/24 12:01:19;;;;;;;2.83;0.68;;;;;;;;;;4988281;28;20050;-82
2023/09/24 12:03:45;;;;;;;1.95;0.50;;;;;;;;;;4996173;28;20040;-82
2023/09/24 12:06:14;;;;;;;2.60;0.70;;;;;;;;;;4991309;28;20045;-83
2023/09/24 12:08:43;;;;;;;2.90;0.50;;;;;;;;;;5005195;28;20091;-84
2023/09/24 12:11:09;;;;;;;2.72;0.73;;;;;;;;;;4993261;28;20125;-83
2023/09/24 12:13:35;;;;;;;3.35;0.77;;;;;;;;;;4989520;28;20116;-82
2023/09/24 12:16:00;;;;;;;2.70;0.63;;;;;;;;;;4988802;28;20496;-84
2023/09/24 12:18:26;;;;;;;2.22;0.60;;;;;;;;;;5006851;28;20616;-85
2023/09/24 12:20:54;;;;;;;3.33;0.90;;;;;;;;;;4992585;28;20030;-84
2023/09/24 12:23:20;;;;;;;3.53;1.02;;;;;;;;;;4993357;28;20049;-83
2023/09/24 12:25:49;;;;;;;3.00;0.77;;;;;;;;;;4972885;28;20568;-83
2023/09/24 12:28:20;;;;;;;3.92;0.85;;;;;;;;;;4980618;28;20042;-84
2023/09/24 12:30:46;;;;;;;3.00;0.80;;;;;;;;;;4984271;28;20455;-82
2023/09/24 12:33:13;;;;;;;2.33;0.90;;;;;;;;;;4998560;28;20037;-83
2023/09/24 12:35:49;;;;;;;1.98;0.65;;;;;;;;;;4958547;28;20069;-82
2023/09/24 12:38:15;;;;;;;1.75;0.60;;;;;;;;;;4959758;28;20038;-81
2023/09/24 12:40:40;;;;;;;2.58;0.90;;;;;;;;;;4989261;28;20041;-83
2023/09/24 12:43:06;;;;;;;3.53;0.60;;;;;;;;;;5021171;28;20136;-84
2023/09/24 12:45:31;;;;;;;3.05;0.77;;;;;;;;;;4987760;28;20029;-84
2023/09/24 12:47:57;;;;;;;2.75;0.73;;;;;;;;;;4993103;28;20503;-84
2023/09/24 12:50:22;;;;;;;2.38;0.70;;;;;;;;;;5003712;28;20486;-84
2023/09/24 12:52:48;;;;;;;4.18;0.82;;;;;;;;;;5003925;28;20121;-82
2023/09/24 12:55:17;;;;;;;2.70;0.70;;;;;;;;;;4990776;28;20540;-81
2023/09/24 12:57:46;;;;;;;3.45;0.80;;;;;;;;;;4977050;28;20037;-81
2023/09/24 13:00:12;;;;;;;2.72;0.60;;;;;;;;;;5006805;28;20482;-81
2023/09/24 13:02:47;;;;;;;2.85;0.80;;;;;;;;;;4988936;28;20092;-81
2023/09/24 13:05:22;;;;;;;2.03;0.75;;;;;;;;;;4994288;28;20033;-79
2023/09/24 13:07:47;;;;;;;2.85;0.85;;;;;;;;;;4985795;28;20512;-81
2023/09/24 13:10:14;;;;;;;3.05;0.88;;;;;;;;;;5006245;28;20034;-81
2023/09/24 13:12:40;;;;;;;4.82;1.00;;;;;;;;;;4988077;28;20034;-81
2023/09/24 13:15:08;;;;;;;3.75;0.85;;;;;;;;;;4989255;28;20131;-81
2023/09/24 13:17:34;;;;;;;2.38;0.85;;;;;;;;;;5008235;28;20037;-82
2023/09/24 13:23:09;;;;;;;2.75;0.70;;;;;;;;;;4981533;28;20124;-81
2023/09/24 13:25:37;;;;;;;3.92;0.85;;;;;;;;;;4989476;28;20121;-81
2023/09/24 13:28:03;;;;;;;3.97;1.08;;;;;;;;;;4995267;28;20041;-82
2023/09/24 13:30:31;;;;;;;3.10;0.70;;;;;;;;;;4983153;28;20031;-82
2023/09/24 13:32:57;;;;;;;3.38;0.95;;;;;;;;;;4998721;28;20045;-82
2023/09/24 13:35:26;;;;;;;4.10;0.82;;;;;;;;;;4994017;28;20133;-82
2023/09/24 13:37:53;;;;;;;3.05;0.90;;;;;;;;;;4968427;28;20030;-83
2023/09/24 13:40:27;;;;;;;4.78;1.00;;;;;;;;;;4958148;28;20108;-83
2023/09/24 13:42:56;;;;;;;3.22;0.80;;;;;;;;;;4974289;28;20080;-85
2023/09/24 13:45:33;;;;;;;5.90;0.90;;;;;;;;;;4956540;28;20038;-83
2023/09/24 13:47:59;;;;;;;;;;;;;;;;;;4983482;28;20438;-84
2023/09/24 13:50:30;;;;;;;3.92;0.80;;;;;;;;;;4988577;28;19914;-83
2023/09/24 13:52:56;;;;;;;4.45;0.80;;;;;;;;;;4983327;28;20041;-84
2023/09/24 13:55:22;;;;;;;2.28;0.60;;;;;;;;;;4984278;28;20886;-84
2023/09/24 13:58:08;;;;;;;3.05;0.70;;;;;;;;;;4978090;28;20433;-83
2023/09/24 14:00:34;;;;;;;2.13;0.60;;;;;;;;;;4983793;28;20500;-82
2023/09/24 14:02:59;;;;;;;2.67;0.70;;;;;;;;;;4989472;28;20043;-82
2023/09/24 14:05:26;;;;;;;1.95;0.60;;;;;;;;;;4987414;28;20034;-82
2023/09/24 14:13:22;;;;;;;5.63;0.80;;;;;;;;;;4997182;28;20396;-82
2023/09/24 14:15:47;;;;;;;2.08;0.50;;;;;;;;;;4995768;28;20042;-82
2023/09/24 14:18:15;;;;;;;2.58;0.60;;;;;;;;;;4974563;28;20085;-82
2023/09/24 14:20:41;;;;;;;2.78;0.70;;;;;;;;;;4973998;28;20500;-82
2023/09/24 14:23:06;;;;;;;2.20;0.70;;;;;;;;;;4984741;28;20039;-83
2023/09/24 14:25:39;;;;;;;2.50;0.70;;;;;;;;;;4971327;28;20037;-83
2023/09/24 14:28:05;;;;;;;2.80;0.63;;;;;;;;;;4985349;28;20048;-83
2023/09/24 14:30:31;;;;;;;2.72;0.70;;;;;;;;;;4992974;28;20038;-83
2023/09/24 14:32:57;;;;;;;1.67;0.50;;;;;;;;;;5002308;28;20135;-83
2023/09/24 14:35:23;;;;;;;2.53;0.60;;;;;;;;;;4971462;28;20517;-83
2023/09/24 14:37:59;;;;;;;2.30;0.60;;;;;;;;;;4999886;28;20118;-82
2023/09/24 14:40:25;;;;;;;3.25;0.70;;;;;;;;;;4998822;28;20044;-83
2023/09/24 14:42:53;;;;;;;2.22;0.68;;;;;;;;;;5002723;28;20505;-83
2023/09/24 14:45:21;;;;;;;2.78;0.50;;;;;;;;;;4985199;28;20046;-83
2023/09/24 14:47:52;;;;;;;2.03;0.60;;;;;;;;;;5002535;28;20040;-82
2023/09/24 14:50:18;;;;;;;2.05;0.63;;;;;;;;;;4982124;28;20045;-83
2023/09/24 14:52:44;;;;;;;2.08;0.60;;;;;;;;;;4997511;28;20034;-83
2023/09/24 14:55:09;;;;;;;3.33;1.00;;;;;;;;;;4989738;28;20046;-83
2023/09/24 14:57:35;;;;;;;3.05;0.70;;;;;;;;;;5002767;28;20485;-82
2023/09/24 15:00:01;;;;;;;2.22;0.75;;;;;;;;;;5007228;28;20040;-82
2023/09/24 15:02:26;;;;;;;2.92;0.70;;;;;;;;;;4995022;28;20060;-82
2023/09/24 15:04:51;;;;;;;2.50;0.70;;;;;;;;;;5006840;28;20113;-82